createdAt,value
2023-04-01T00:00:47.185Z,2.50
2023-04-01T00:03:51.250Z,2.42
2023-04-01T00:06:54.496Z,2.83
2023-04-01T00:09:57.484Z,2.60
2023-04-01T00:13:00.569Z,2.78
2023-04-01T00:16:17.675Z,2.50
2023-04-01T00:19:23.656Z,2.90
2023-04-01T00:22:28.178Z,3.10
2023-04-01T00:25:31.611Z,3.05
2023-04-01T00:28:37.285Z,5.60
2023-04-01T00:31:40.857Z,4.05
2023-04-01T00:34:45.768Z,4.45
2023-04-01T00:37:48.966Z,8.55
2023-04-01T00:40:58.605Z,5.10
2023-04-01T00:44:24.647Z,4.90
2023-04-01T00:47:28.976Z,5.57
2023-04-01T00:50:33.570Z,5.20
2023-04-01T00:53:41.588Z,5.53
2023-04-01T00:56:57.273Z,5.00
2023-04-01T01:00:01.076Z,4.97
2023-04-01T01:03:04.618Z,4.20
2023-04-01T01:06:24.592Z,5.03
2023-04-01T01:13:15.708Z,5.45
2023-04-01T01:16:27.415Z,4.18
2023-04-01T01:19:49.635Z,4.47
2023-04-01T01:23:37.884Z,5.78
2023-04-01T01:26:58.803Z,4.40
2023-04-01T01:30:08.537Z,3.10
2023-04-01T01:36:17.209Z,2.58
2023-04-01T01:39:21.599Z,3.05
2023-04-01T01:42:27.557Z,2.95
2023-04-01T01:45:32.230Z,3.17
2023-04-01T01:48:37.636Z,3.20
2023-04-01T01:51:41.336Z,3.53
2023-04-01T01:54:52.722Z,3.70
2023-04-01T01:58:00.935Z,3.80
2023-04-01T02:01:07.438Z,3.83
2023-04-01T02:04:12.369Z,3.90
2023-04-01T02:07:37.341Z,3.88
2023-04-01T02:10:45.244Z,3.15
2023-04-01T02:13:57.761Z,3.80
2023-04-01T02:17:08.729Z,3.17
2023-04-01T02:20:19.093Z,3.78
2023-04-01T02:23:22.489Z,3.30
2023-04-01T02:26:28.037Z,3.70
2023-04-01T02:29:31.436Z,3.63
2023-04-01T02:32:39.176Z,4.07
2023-04-01T02:35:42.633Z,4.30
2023-04-01T02:38:48.083Z,4.75
2023-04-01T02:41:51.176Z,5.07
2023-04-01T02:44:54.179Z,5.25
2023-04-01T02:47:57.393Z,5.10
2023-04-01T02:51:00.340Z,5.57
2023-04-01T02:54:04.471Z,5.43
2023-04-01T02:57:07.751Z,5.40
2023-04-01T03:00:12.592Z,5.25
2023-04-01T03:03:15.947Z,5.60
2023-04-01T03:06:19.294Z,4.75
2023-04-01T03:09:22.583Z,5.30
2023-04-01T03:12:25.565Z,4.93
2023-04-01T03:15:28.656Z,5.00
2023-04-01T03:18:31.265Z,4.60
2023-04-01T03:21:34.643Z,4.70
2023-04-01T03:24:37.620Z,5.35
2023-04-01T03:27:40.714Z,4.90
2023-04-01T03:30:43.832Z,4.85
2023-04-01T03:33:47.208Z,5.22
2023-04-01T03:36:50.084Z,5.05
2023-04-01T03:39:53.585Z,5.07
2023-04-01T03:42:57.557Z,4.45
2023-04-01T03:46:00.713Z,5.65
2023-04-01T03:49:04.394Z,5.32
2023-04-01T03:52:11.886Z,5.53
2023-04-01T03:55:14.781Z,5.00
2023-04-01T03:58:17.866Z,5.57
2023-04-01T04:01:22.799Z,5.35
2023-04-01T04:04:26.003Z,5.30
2023-04-01T04:07:29.084Z,5.65
2023-04-01T04:10:32.519Z,5.85
2023-04-01T04:13:37.320Z,5.57
2023-04-01T04:16:40.405Z,5.55
2023-04-01T04:19:43.906Z,5.10
2023-04-01T04:22:47.512Z,5.70
2023-04-01T04:26:03.609Z,6.22
2023-04-01T04:29:06.806Z,7.25
2023-04-01T04:32:09.684Z,7.63
2023-04-01T04:35:12.978Z,7.30
2023-04-01T04:38:16.074Z,8.10
2023-04-01T04:41:20.456Z,8.25
2023-04-01T04:44:23.887Z,9.30
2023-04-01T04:47:26.900Z,9.65
2023-04-01T04:50:29.865Z,9.10
2023-04-01T04:53:33.167Z,9.68
2023-04-01T04:56:37.277Z,9.50
2023-04-01T04:59:40.366Z,9.48
2023-04-01T05:02:43.727Z,9.43
2023-04-01T05:05:54.741Z,9.80
2023-04-01T05:08:58.342Z,9.38
2023-04-01T05:12:01.639Z,9.20
2023-04-01T05:15:08.426Z,8.90
2023-04-01T05:18:11.297Z,8.40
2023-04-01T05:21:16.437Z,10.57
2023-04-01T05:24:19.428Z,12.02
2023-04-01T05:27:22.928Z,16.58
2023-04-01T05:30:25.919Z,15.60
2023-04-01T05:33:29.930Z,12.50
2023-04-01T05:36:33.239Z,16.27
2023-04-01T05:39:40.108Z,9.10
2023-04-01T05:42:43.402Z,11.88
2023-04-01T05:45:46.513Z,9.85
2023-04-01T05:48:49.895Z,5.70
2023-04-01T05:51:52.879Z,6.20
2023-04-01T05:54:55.872Z,5.93
2023-04-01T05:57:59.059Z,5.70
2023-04-01T06:01:11.252Z,5.70
2023-04-01T06:04:19.395Z,5.50
2023-04-01T06:07:22.467Z,5.20
2023-04-01T06:10:50.542Z,6.20
2023-04-01T06:14:12.392Z,7.20
2023-04-01T06:17:36.778Z,7.15
2023-04-01T06:20:55.010Z,5.43
2023-04-01T06:24:14.308Z,5.45
2023-04-01T06:27:48.092Z,5.03
2023-04-01T06:31:20.208Z,5.78
2023-04-01T06:34:26.549Z,5.80
2023-04-01T06:38:00.543Z,5.50
2023-04-01T06:41:26.775Z,5.30
2023-04-01T06:44:32.531Z,5.38
2023-04-01T06:47:45.581Z,5.35
2023-04-01T06:51:08.848Z,5.43
2023-04-01T06:54:36.489Z,5.10
2023-04-01T06:57:55.145Z,5.20
2023-04-01T07:01:05.240Z,4.93
2023-04-01T07:04:27.149Z,5.70
2023-04-01T07:07:54.596Z,5.07
2023-04-01T07:11:05.464Z,5.88
2023-04-01T07:14:34.870Z,5.30
2023-04-01T07:17:41.065Z,4.82
2023-04-01T07:20:44.327Z,5.03
2023-04-01T07:23:48.951Z,4.72
2023-04-01T07:26:58.288Z,4.70
2023-04-01T07:30:03.230Z,3.90
2023-04-01T07:33:14.719Z,4.03
2023-04-01T07:36:39.411Z,4.13
2023-04-01T07:39:54.382Z,4.55
2023-04-01T07:43:27.883Z,5.00
2023-04-01T07:46:51.153Z,5.80
2023-04-01T07:50:07.261Z,4.07
2023-04-01T07:53:31.648Z,3.60
2023-04-01T07:56:52.974Z,3.60
2023-04-01T08:00:08.647Z,4.85
2023-04-01T08:03:33.454Z,3.90
2023-04-01T08:07:08.691Z,3.95
2023-04-01T08:10:33.704Z,3.10
2023-04-01T08:13:47.949Z,2.78
2023-04-01T08:17:06.080Z,3.10
2023-04-01T08:20:36.513Z,4.50
2023-04-01T08:23:46.372Z,3.65
2023-04-01T08:26:54.780Z,3.92
2023-04-01T08:30:18.556Z,2.95
2023-04-01T08:33:31.155Z,2.70
2023-04-01T08:36:38.875Z,2.92
2023-04-01T08:39:49.848Z,2.75
2023-04-01T08:43:17.532Z,2.63
2023-04-01T08:46:44.574Z,2.78
2023-04-01T08:50:12.744Z,3.13
2023-04-01T08:53:30.781Z,2.78
2023-04-01T08:56:59.263Z,2.97
2023-04-01T09:00:47.012Z,2.70
2023-04-01T09:04:05.074Z,2.60
2023-04-01T09:07:27.089Z,2.80
2023-04-01T09:10:48.420Z,2.53
2023-04-01T09:14:10.657Z,2.60
2023-04-01T09:17:45.877Z,2.67
2023-04-01T09:21:12.541Z,2.55
2023-04-01T09:24:27.921Z,2.67
2023-04-01T09:27:51.597Z,2.75
2023-04-01T09:31:18.609Z,3.55
2023-04-01T09:34:42.745Z,2.17
2023-04-01T09:37:49.407Z,2.45
2023-04-01T09:41:08.996Z,2.17
2023-04-01T09:44:15.358Z,2.33
2023-04-01T09:47:30.066Z,1.95
2023-04-01T09:50:43.769Z,2.05
2023-04-01T09:53:59.356Z,2.03
2023-04-01T09:57:47.292Z,2.60
2023-04-01T10:01:00.723Z,2.28
2023-04-01T10:04:26.242Z,2.83
2023-04-01T10:07:38.241Z,3.05
2023-04-01T10:11:02.453Z,2.40
2023-04-01T10:14:33.166Z,2.45
2023-04-01T10:18:07.109Z,2.53
2023-04-01T10:21:27.378Z,2.60
2023-04-01T10:24:45.217Z,2.05
2023-04-01T10:27:57.314Z,1.52
2023-04-01T10:31:00.728Z,1.58
2023-04-01T10:34:34.531Z,1.70
2023-04-01T10:37:58.407Z,2.20
2023-04-01T10:41:15.525Z,2.17
2023-04-01T10:44:26.922Z,1.80
2023-04-01T10:47:35.869Z,1.90
2023-04-01T10:50:59.945Z,1.33
2023-04-01T10:54:50.334Z,1.40
2023-04-01T10:58:10.116Z,1.33
2023-04-01T11:02:00.666Z,1.23
2023-04-01T11:05:41.492Z,1.13
2023-04-01T11:08:50.010Z,1.00
2023-04-01T11:15:58.060Z,0.90
2023-04-01T11:19:07.178Z,0.95
2023-04-01T11:22:16.322Z,1.17
2023-04-01T11:25:37.625Z,1.13
2023-04-01T11:28:57.313Z,0.80
2023-04-01T11:32:09.314Z,1.00
2023-04-01T11:35:33.942Z,1.20
2023-04-01T11:39:26.357Z,1.00
2023-04-01T11:43:07.442Z,1.10
2023-04-01T11:46:33.139Z,1.13
2023-04-01T11:49:55.199Z,1.05
2023-04-01T11:53:20.818Z,1.00
2023-04-01T11:56:50.971Z,1.17
2023-04-01T12:03:42.613Z,1.15
2023-04-01T12:10:19.396Z,1.25
2023-04-01T12:13:34.159Z,0.80
2023-04-01T12:16:49.070Z,1.20
2023-04-01T12:20:13.039Z,1.05
2023-04-01T12:23:38.942Z,0.95
2023-04-01T12:27:07.763Z,0.70
2023-04-01T12:30:16.976Z,0.65
2023-04-01T12:33:29.382Z,0.60
2023-04-01T12:37:05.444Z,0.80
2023-04-01T12:40:33.718Z,0.70
2023-04-01T12:44:10.506Z,0.50
2023-04-01T12:47:21.585Z,0.50
2023-04-01T12:50:57.965Z,0.60
2023-04-01T12:54:28.528Z,0.50
2023-04-01T12:57:58.013Z,0.60
2023-04-01T13:01:12.799Z,0.40
2023-04-01T13:04:34.906Z,0.50
2023-04-01T13:08:06.977Z,0.60
2023-04-01T13:11:51.951Z,0.50
2023-04-01T13:15:27.774Z,0.75
2023-04-01T13:18:54.959Z,1.05
2023-04-01T13:22:08.100Z,0.90
2023-04-01T13:25:59.199Z,0.70
2023-04-01T13:29:38.047Z,1.00
2023-04-01T13:32:59.413Z,1.30
2023-04-01T13:36:19.676Z,0.70
2023-04-01T13:39:50.288Z,1.10
2023-04-01T13:43:00.043Z,1.40
2023-04-01T13:46:03.370Z,1.70
2023-04-01T13:49:40.324Z,2.78
2023-04-01T13:53:17.414Z,1.60
2023-04-01T13:56:23.585Z,1.10
2023-04-01T13:59:58.002Z,0.80
2023-04-01T14:03:30.230Z,0.70
2023-04-01T14:06:41.560Z,0.90
2023-04-01T14:10:02.262Z,1.50
2023-04-01T14:13:19.695Z,1.10
2023-04-01T14:16:23.132Z,1.00
2023-04-01T14:19:30.280Z,1.00
2023-04-01T14:22:52.122Z,1.10
2023-04-01T14:26:28.289Z,0.70
2023-04-01T14:29:57.483Z,0.80
2023-04-01T14:33:21.360Z,0.80
2023-04-01T14:36:51.794Z,0.90
2023-04-01T14:40:21.619Z,0.80
2023-04-01T14:43:56.665Z,0.50
2023-04-01T14:47:35.410Z,0.70
2023-04-01T14:50:52.294Z,0.60
2023-04-01T14:54:13.413Z,0.75
2023-04-01T14:57:25.772Z,0.80
2023-04-01T15:00:32.325Z,1.10
2023-04-01T15:03:57.202Z,0.80
2023-04-01T15:07:08.688Z,0.77
2023-04-01T15:10:31.346Z,0.90
2023-04-01T15:14:00.184Z,0.77
2023-04-01T15:17:22.389Z,0.80
2023-04-01T15:21:03.051Z,0.68
2023-04-01T15:24:34.918Z,0.60
2023-04-01T15:27:52.347Z,0.50
2023-04-01T15:30:59.567Z,0.60
2023-04-01T15:34:41.231Z,0.40
2023-04-01T15:38:08.183Z,0.50
2023-04-01T15:41:14.251Z,0.60
2023-04-01T15:44:52.369Z,0.43
2023-04-01T15:48:27.602Z,0.80
2023-04-01T15:51:49.848Z,0.40
2023-04-01T15:54:58.677Z,0.82
2023-04-01T15:58:27.772Z,1.08
2023-04-01T16:01:49.463Z,1.30
2023-04-01T16:04:58.842Z,1.60
2023-04-01T16:08:32.133Z,1.90
2023-04-01T16:11:56.118Z,1.90
2023-04-01T16:15:30.904Z,1.67
2023-04-01T16:19:06.298Z,2.05
2023-04-01T16:22:28.746Z,1.80
2023-04-01T16:25:43.207Z,2.10
2023-04-01T16:29:05.069Z,1.98
2023-04-01T16:32:44.798Z,1.80
2023-04-01T16:36:19.107Z,1.88
2023-04-01T16:39:47.900Z,1.35
2023-04-01T16:42:54.378Z,1.42
2023-04-01T16:46:22.581Z,1.45
2023-04-01T16:50:07.017Z,1.50
2023-04-01T16:53:17.170Z,1.33
2023-04-01T16:56:38.588Z,1.35
2023-04-01T17:00:19.878Z,1.02
2023-04-01T17:06:49.620Z,1.20
2023-04-01T17:09:59.260Z,1.13
2023-04-01T17:13:37.599Z,3.25
2023-04-01T17:16:41.088Z,4.70
2023-04-01T17:19:51.242Z,30.55
2023-04-01T17:23:21.264Z,15.10
2023-04-01T17:26:48.110Z,4.78
2023-04-01T17:30:26.231Z,1.40
2023-04-01T17:33:33.114Z,2.67
2023-04-01T17:37:01.691Z,4.63
2023-04-01T17:40:30.074Z,1.70
2023-04-01T17:43:50.777Z,17.23
2023-04-01T17:47:15.685Z,7.97
2023-04-01T17:50:30.859Z,14.45
2023-04-01T17:53:57.292Z,10.38
2023-04-01T17:57:38.304Z,5.45
2023-04-01T18:00:54.668Z,3.90
2023-04-01T18:04:28.079Z,3.70
2023-04-01T18:07:45.915Z,3.65
2023-04-01T18:11:20.648Z,5.72
2023-04-01T18:14:43.092Z,56.55
2023-04-01T18:18:20.078Z,28.33
2023-04-01T18:21:30.547Z,23.30
2023-04-01T18:25:01.924Z,15.35
2023-04-01T18:28:22.101Z,29.48
2023-04-01T18:31:34.205Z,11.57
2023-04-01T18:35:14.563Z,8.65
2023-04-01T18:38:31.572Z,11.32
2023-04-01T18:41:58.830Z,3.28
2023-04-01T18:45:19.642Z,5.18
2023-04-01T18:48:58.054Z,4.13
2023-04-01T18:52:24.392Z,10.30
2023-04-01T18:55:34.931Z,4.63
2023-04-01T18:58:50.952Z,2.90
2023-04-01T19:02:22.306Z,2.88
2023-04-01T19:08:38.314Z,3.05
2023-04-01T19:12:13.148Z,3.25
2023-04-01T19:15:43.699Z,4.50
2023-04-01T19:19:08.478Z,3.28
2023-04-01T19:22:34.001Z,3.92
2023-04-01T19:25:38.726Z,6.32
2023-04-01T19:28:58.312Z,3.45
2023-04-01T19:32:33.366Z,4.00
2023-04-01T19:35:44.356Z,3.95
2023-04-01T19:38:56.433Z,4.22
2023-04-01T19:42:07.906Z,4.25
2023-04-01T19:45:24.329Z,4.00
2023-04-01T19:48:31.198Z,5.65
2023-04-01T19:52:06.345Z,3.80
2023-04-01T19:55:23.979Z,4.43
2023-04-01T19:58:47.236Z,4.00
2023-04-01T20:02:24.336Z,4.03
2023-04-01T20:06:21.902Z,5.63
2023-04-01T20:09:36.656Z,4.22
2023-04-01T20:12:42.614Z,4.47
2023-04-01T20:15:49.493Z,2.85
2023-04-01T20:19:02.112Z,2.90
2023-04-01T20:22:23.938Z,3.22
2023-04-01T20:25:30.204Z,2.95
2023-04-01T20:28:46.621Z,2.65
2023-04-01T20:32:13.842Z,2.63
2023-04-01T20:35:41.934Z,3.10
2023-04-01T20:39:12.983Z,2.78
2023-04-01T20:42:36.964Z,2.55
2023-04-01T20:45:56.897Z,2.60
2023-04-01T20:52:35.764Z,2.60
2023-04-01T20:55:48.523Z,2.58
2023-04-01T20:58:56.218Z,2.70
2023-04-01T21:02:38.555Z,3.30
2023-04-01T21:06:06.366Z,3.08
2023-04-01T21:09:21.374Z,6.70
2023-04-01T21:12:32.974Z,9.35
2023-04-01T21:16:09.360Z,12.95
2023-04-01T21:19:35.877Z,8.73
2023-04-01T21:22:54.322Z,4.50
2023-04-01T21:26:15.334Z,4.70
2023-04-01T21:29:51.504Z,4.75
2023-04-01T21:33:04.639Z,5.95
2023-04-01T21:36:22.725Z,21.08
2023-04-01T21:39:43.683Z,10.60
2023-04-01T21:42:52.802Z,8.40
2023-04-01T21:46:16.978Z,4.97
2023-04-01T21:49:44.866Z,4.13
2023-04-01T21:52:57.288Z,3.63
2023-04-01T21:56:54.439Z,3.10
2023-04-01T22:00:12.874Z,6.95
2023-04-01T22:03:33.888Z,8.95
2023-04-01T22:07:15.896Z,6.28
2023-04-01T22:10:31.282Z,5.78
2023-04-01T22:13:47.677Z,7.43
2023-04-01T22:17:04.897Z,10.02
2023-04-01T22:20:46.493Z,8.07
2023-04-01T22:27:08.852Z,5.20
2023-04-01T22:30:24.636Z,4.97
2023-04-01T22:33:33.670Z,5.03
2023-04-01T22:37:03.997Z,7.37
2023-04-01T22:40:09.958Z,13.32
2023-04-01T22:43:22.682Z,5.65
2023-04-01T22:46:45.218Z,4.75
2023-04-01T22:50:03.685Z,7.13
2023-04-01T22:53:27.759Z,5.55
2023-04-01T22:56:49.592Z,5.10
2023-04-01T22:59:59.543Z,3.95
2023-04-01T23:03:06.683Z,3.38
2023-04-01T23:06:22.208Z,3.95
2023-04-01T23:09:32.777Z,3.20
2023-04-01T23:12:36.507Z,3.33
2023-04-01T23:15:40.143Z,3.90
2023-04-01T23:19:14.819Z,3.63
2023-04-01T23:22:41.563Z,3.75
2023-04-01T23:26:01.960Z,3.33
2023-04-01T23:29:07.302Z,3.45
2023-04-01T23:32:23.821Z,3.67
2023-04-01T23:35:27.410Z,4.05
2023-04-01T23:38:30.392Z,3.63
2023-04-01T23:41:34.721Z,4.03
2023-04-01T23:44:38.623Z,4.30
2023-04-01T23:47:42.674Z,4.07
2023-04-01T23:50:46.963Z,5.90
2023-04-01T23:54:04.623Z,5.95
2023-04-01T23:57:14.904Z,5.72
